createdAt,value
2022-11-03T00:01:16.146Z,11.47
2022-11-03T00:04:02.192Z,10.76
2022-11-03T00:06:50.248Z,10.42
2022-11-03T00:09:36.272Z,10.25
2022-11-03T00:12:21.898Z,10.33
2022-11-03T00:15:08.551Z,10.47
2022-11-03T00:17:54.932Z,11.41
2022-11-03T00:20:41.495Z,10.98
2022-11-03T00:23:28.952Z,10.35
2022-11-03T00:26:16.682Z,10.06
2022-11-03T00:29:07.990Z,10.86
2022-11-03T00:31:58.061Z,11.29
2022-11-03T00:34:44.203Z,10.73
2022-11-03T00:37:30.988Z,11.55
2022-11-03T00:40:17.311Z,10.94
2022-11-03T00:43:05.022Z,11.31
2022-11-03T00:45:51.392Z,11.35
2022-11-03T00:48:37.755Z,11.73
2022-11-03T00:51:24.969Z,11.61
2022-11-03T00:54:11.529Z,11.58
2022-11-03T00:56:57.827Z,10.82
2022-11-03T00:59:44.250Z,10.32
2022-11-03T01:02:30.421Z,10.31
2022-11-03T01:05:37.063Z,10.24
2022-11-03T01:08:26.608Z,10.46
2022-11-03T01:11:33.775Z,10.36
2022-11-03T01:14:20.426Z,10.60
2022-11-03T01:17:08.104Z,10.82
2022-11-03T01:19:54.303Z,10.59
2022-11-03T01:22:41.728Z,10.49
2022-11-03T01:25:27.842Z,10.27
2022-11-03T01:28:14.943Z,10.45
2022-11-03T01:31:08.947Z,10.70
2022-11-03T01:33:56.144Z,11.33
2022-11-03T01:36:42.458Z,11.05
2022-11-03T01:39:29.323Z,11.34
2022-11-03T01:42:15.469Z,11.78
2022-11-03T01:45:02.967Z,11.29
2022-11-03T01:47:49.217Z,11.01
2022-11-03T01:50:36.384Z,11.58
2022-11-03T01:53:22.586Z,12.44
2022-11-03T01:56:09.425Z,12.66
2022-11-03T01:58:55.917Z,12.69
2022-11-03T02:01:42.706Z,12.90
2022-11-03T02:04:30.228Z,12.90
2022-11-03T02:07:22.806Z,12.85
2022-11-03T02:10:11.446Z,12.58
2022-11-03T02:12:57.976Z,12.39
2022-11-03T02:15:44.006Z,12.40
2022-11-03T02:18:31.800Z,12.73
2022-11-03T02:21:30.787Z,12.56
2022-11-03T02:24:38.079Z,12.24
2022-11-03T02:27:24.356Z,11.62
2022-11-03T02:30:10.701Z,11.60
2022-11-03T02:32:57.897Z,11.58
2022-11-03T02:35:53.579Z,11.90
2022-11-03T02:38:43.482Z,11.40
2022-11-03T02:41:29.876Z,11.83
2022-11-03T02:44:16.916Z,11.74
2022-11-03T02:47:04.239Z,11.47
2022-11-03T02:49:50.966Z,11.23
2022-11-03T02:52:39.043Z,11.11
2022-11-03T02:55:38.680Z,11.33
2022-11-03T02:58:29.517Z,11.36
2022-11-03T03:01:34.588Z,11.31
2022-11-03T03:04:27.320Z,11.07
2022-11-03T03:07:15.908Z,11.05
2022-11-03T03:10:05.381Z,11.47
2022-11-03T03:12:54.148Z,11.45
2022-11-03T03:15:48.146Z,10.79
2022-11-03T03:18:42.424Z,10.43
2022-11-03T03:21:33.120Z,10.72
2022-11-03T03:24:22.180Z,10.84
2022-11-03T03:27:09.123Z,11.17
2022-11-03T03:30:05.025Z,11.42
2022-11-03T03:32:51.734Z,11.38
2022-11-03T03:35:38.629Z,11.12
2022-11-03T03:38:27.320Z,10.90
2022-11-03T03:41:21.749Z,10.93
2022-11-03T03:44:08.489Z,10.40
2022-11-03T03:47:04.634Z,11.12
2022-11-03T03:49:50.868Z,10.67
2022-11-03T03:52:37.029Z,10.27
2022-11-03T03:55:32.316Z,9.26
2022-11-03T03:58:19.482Z,9.69
2022-11-03T04:01:11.534Z,8.29
2022-11-03T04:03:58.248Z,8.40
2022-11-03T04:06:44.840Z,9.04
2022-11-03T04:09:31.659Z,9.48
2022-11-03T04:12:37.648Z,10.03
2022-11-03T04:15:44.251Z,9.51
2022-11-03T04:18:48.879Z,9.89
2022-11-03T04:21:54.604Z,10.44
2022-11-03T04:24:40.621Z,10.58
2022-11-03T04:27:29.543Z,10.25
2022-11-03T04:30:19.419Z,10.07
2022-11-03T04:33:10.137Z,9.83
2022-11-03T04:35:58.697Z,10.35
2022-11-03T04:38:45.158Z,10.34
2022-11-03T04:41:32.165Z,10.31
2022-11-03T04:44:20.058Z,10.18
2022-11-03T04:47:10.398Z,9.97
2022-11-03T04:49:56.916Z,8.36
2022-11-03T04:52:43.296Z,7.22
2022-11-03T04:55:31.227Z,7.33
2022-11-03T04:58:35.793Z,8.85
2022-11-03T05:01:24.531Z,9.20
2022-11-03T05:04:14.603Z,8.61
2022-11-03T05:07:06.109Z,8.48
2022-11-03T05:09:53.950Z,9.40
2022-11-03T05:12:40.614Z,9.58
2022-11-03T05:15:37.491Z,9.60
2022-11-03T05:18:26.140Z,8.44
2022-11-03T05:21:13.979Z,7.86
2022-11-03T05:24:03.992Z,8.35
2022-11-03T05:26:50.369Z,9.20
2022-11-03T05:29:37.394Z,9.74
2022-11-03T05:32:23.739Z,9.93
2022-11-03T05:35:18.466Z,9.76
2022-11-03T05:38:07.040Z,9.76
2022-11-03T05:41:03.589Z,9.54
2022-11-03T05:44:00.107Z,9.90
2022-11-03T05:46:50.958Z,9.80
2022-11-03T05:49:37.792Z,9.77
2022-11-03T05:52:25.120Z,9.79
2022-11-03T05:55:40.787Z,9.87
2022-11-03T05:58:33.100Z,9.81
2022-11-03T06:01:30.906Z,9.35
2022-11-03T06:04:27.087Z,9.14
2022-11-03T06:07:27.244Z,9.23
2022-11-03T06:10:35.311Z,9.46
2022-11-03T06:13:35.353Z,9.42
2022-11-03T06:16:36.759Z,9.67
2022-11-03T06:19:29.079Z,9.79
2022-11-03T06:22:22.089Z,10.30
2022-11-03T06:25:12.240Z,10.45
2022-11-03T06:28:07.260Z,10.48
2022-11-03T06:30:54.129Z,10.45
2022-11-03T06:33:41.533Z,10.59
2022-11-03T06:36:30.191Z,10.30
2022-11-03T06:39:20.539Z,10.25
2022-11-03T06:42:14.082Z,10.58
2022-11-03T06:45:02.670Z,10.91
2022-11-03T06:47:51.512Z,10.79
2022-11-03T06:50:42.274Z,10.83
2022-11-03T06:53:33.974Z,10.84
2022-11-03T06:56:21.196Z,10.96
2022-11-03T06:59:13.138Z,10.98
2022-11-03T07:02:01.508Z,11.19
2022-11-03T07:04:48.807Z,10.74
2022-11-03T07:07:36.941Z,10.48
2022-11-03T07:10:25.186Z,10.99
2022-11-03T07:13:16.534Z,11.29
2022-11-03T07:16:04.038Z,11.42
2022-11-03T07:18:52.497Z,11.20
2022-11-03T07:21:44.565Z,11.63
2022-11-03T07:24:51.183Z,11.84
2022-11-03T07:27:39.068Z,12.02
2022-11-03T07:30:33.575Z,11.92
2022-11-03T07:33:22.041Z,12.15
2022-11-03T07:36:15.845Z,12.66
2022-11-03T07:39:03.588Z,12.39
2022-11-03T07:41:50.583Z,12.88
2022-11-03T07:44:38.003Z,12.92
2022-11-03T07:47:27.447Z,13.07
2022-11-03T07:50:15.357Z,12.95
2022-11-03T07:53:03.350Z,13.08
2022-11-03T07:55:53.558Z,13.07
2022-11-03T07:58:40.760Z,13.13
2022-11-03T08:01:30.236Z,13.37
2022-11-03T08:04:35.294Z,13.33
2022-11-03T08:07:30.398Z,13.32
2022-11-03T08:10:17.473Z,12.87
2022-11-03T08:13:04.818Z,12.59
2022-11-03T08:15:52.120Z,12.97
2022-11-03T08:18:38.721Z,13.23
2022-11-03T08:21:28.268Z,13.36
2022-11-03T08:24:15.339Z,13.16
2022-11-03T08:27:10.055Z,13.20
2022-11-03T08:29:57.875Z,13.99
2022-11-03T08:32:45.522Z,13.98
2022-11-03T08:35:34.069Z,13.74
2022-11-03T08:38:25.144Z,13.87
2022-11-03T08:41:13.033Z,13.89
2022-11-03T08:43:59.453Z,13.48
2022-11-03T08:46:46.456Z,13.65
2022-11-03T08:49:40.142Z,13.06
2022-11-03T08:52:32.140Z,13.11
2022-11-03T08:55:20.670Z,13.32
2022-11-03T08:58:07.362Z,13.19
2022-11-03T09:00:54.772Z,13.58
2022-11-03T09:03:41.070Z,12.94
2022-11-03T09:06:28.109Z,13.40
2022-11-03T09:12:23.201Z,13.31
2022-11-03T09:15:10.908Z,13.33
2022-11-03T09:17:57.290Z,13.24
2022-11-03T09:20:46.096Z,13.48
2022-11-03T09:23:34.876Z,13.73
2022-11-03T09:26:32.592Z,13.64
2022-11-03T09:29:19.747Z,13.61
2022-11-03T09:32:06.507Z,13.58
2022-11-03T09:34:53.186Z,13.34
2022-11-03T09:37:39.790Z,13.34
2022-11-03T09:40:26.997Z,13.71
2022-11-03T09:43:14.265Z,13.38
2022-11-03T09:46:00.625Z,13.69
2022-11-03T09:48:47.424Z,13.58
2022-11-03T09:51:35.255Z,13.70
2022-11-03T09:54:27.809Z,13.58
2022-11-03T09:57:15.530Z,13.81
2022-11-03T10:00:04.101Z,13.74
2022-11-03T10:02:56.986Z,14.02
2022-11-03T10:05:47.250Z,13.29
2022-11-03T10:08:35.981Z,13.82
2022-11-03T10:11:24.940Z,13.76
2022-11-03T10:14:13.631Z,13.46
2022-11-03T10:17:02.864Z,13.63
2022-11-03T10:19:49.811Z,13.72
2022-11-03T10:22:41.039Z,13.70
2022-11-03T10:25:45.008Z,13.39
2022-11-03T10:28:32.107Z,13.32
2022-11-03T10:31:20.002Z,13.42
2022-11-03T10:34:26.825Z,13.08
2022-11-03T10:37:26.684Z,13.59
2022-11-03T10:40:53.258Z,13.16
2022-11-03T10:43:41.270Z,13.00
2022-11-03T10:49:43.645Z,12.75
2022-11-03T10:52:30.563Z,12.76
2022-11-03T10:55:22.087Z,13.25
2022-11-03T10:58:11.882Z,13.18
2022-11-03T11:01:08.275Z,13.23
2022-11-03T11:03:55.435Z,13.26
2022-11-03T11:06:41.888Z,13.59
2022-11-03T11:09:28.411Z,13.23
2022-11-03T11:12:14.677Z,13.24
2022-11-03T11:15:02.681Z,12.99
2022-11-03T11:17:50.230Z,13.19
2022-11-03T11:20:43.264Z,13.14
2022-11-03T11:23:29.152Z,13.46
2022-11-03T11:26:17.164Z,13.59
2022-11-03T11:29:17.146Z,13.48
2022-11-03T11:32:35.332Z,12.97
2022-11-03T11:35:27.795Z,12.98
2022-11-03T11:38:33.188Z,13.01
2022-11-03T11:41:20.923Z,13.08
2022-11-03T11:44:26.457Z,13.33
2022-11-03T11:47:27.304Z,12.85
2022-11-03T11:50:16.053Z,13.32
2022-11-03T11:53:07.527Z,13.43
2022-11-03T11:55:59.501Z,13.49
2022-11-03T11:58:57.090Z,12.92
2022-11-03T12:01:44.737Z,13.20
2022-11-03T12:04:33.612Z,13.35
2022-11-03T12:07:34.567Z,13.53
2022-11-03T12:10:29.036Z,13.13
2022-11-03T12:13:34.581Z,13.15
2022-11-03T12:16:29.314Z,13.13
2022-11-03T12:19:37.930Z,12.94
2022-11-03T12:22:29.563Z,13.33
2022-11-03T12:25:35.030Z,13.54
2022-11-03T12:28:33.388Z,13.51
2022-11-03T12:31:19.354Z,13.54
2022-11-03T12:34:11.143Z,13.74
2022-11-03T12:36:59.100Z,13.54
2022-11-03T12:39:47.080Z,13.66
2022-11-03T12:42:33.220Z,13.60
2022-11-03T12:45:22.319Z,13.44
2022-11-03T12:48:09.615Z,13.66
2022-11-03T12:50:56.706Z,13.53
2022-11-03T12:53:46.735Z,13.76
2022-11-03T12:56:34.361Z,13.79
2022-11-03T12:59:22.256Z,13.39
2022-11-03T13:02:12.012Z,12.75
2022-11-03T13:04:59.287Z,13.41
2022-11-03T13:07:50.097Z,13.77
2022-11-03T13:10:41.368Z,13.79
2022-11-03T13:13:32.022Z,13.61
2022-11-03T13:16:24.444Z,13.84
2022-11-03T13:19:21.063Z,13.73
2022-11-03T13:22:16.082Z,13.89
2022-11-03T13:25:06.994Z,13.48
2022-11-03T13:27:57.286Z,14.01
2022-11-03T13:30:46.151Z,13.41
2022-11-03T13:33:33.083Z,13.78
2022-11-03T13:36:25.182Z,13.81
2022-11-03T13:39:17.504Z,13.83
2022-11-03T13:42:06.105Z,13.59
2022-11-03T13:48:30.058Z,13.71
2022-11-03T13:51:00.337Z,13.71
2022-11-03T14:00:09.636Z,13.26
2022-11-03T14:06:16.113Z,13.46
2022-11-03T14:09:02.333Z,13.31
2022-11-03T14:12:09.720Z,13.19
2022-11-03T14:15:02.519Z,12.91
2022-11-03T14:18:07.348Z,13.21
2022-11-03T14:21:02.093Z,13.23
2022-11-03T14:23:50.098Z,13.46
2022-11-03T14:26:44.189Z,13.55
2022-11-03T14:29:34.107Z,13.49
2022-11-03T14:32:22.283Z,13.18
2022-11-03T14:35:17.415Z,13.37
2022-11-03T14:38:08.632Z,12.75
2022-11-03T14:41:15.194Z,12.77
2022-11-03T14:44:03.740Z,12.89
2022-11-03T14:46:55.072Z,12.47
2022-11-03T14:49:44.386Z,13.08
2022-11-03T14:52:31.169Z,13.02
2022-11-03T14:55:18.229Z,12.94
2022-11-03T14:58:07.705Z,12.61
2022-11-03T15:00:57.095Z,12.62
2022-11-03T15:03:47.260Z,13.05
2022-11-03T15:06:41.115Z,12.97
2022-11-03T15:09:30.430Z,13.14
2022-11-03T15:12:20.218Z,13.37
2022-11-03T15:15:13.070Z,12.59
2022-11-03T15:18:04.577Z,13.26
2022-11-03T15:21:01.101Z,12.75
2022-11-03T15:26:54.215Z,12.77
2022-11-03T15:29:46.965Z,12.52
2022-11-03T15:32:38.121Z,12.87
2022-11-03T15:35:37.128Z,12.94
2022-11-03T15:38:31.048Z,12.68
2022-11-03T15:41:25.031Z,12.07
2022-11-03T15:44:12.485Z,12.14
2022-11-03T15:47:00.109Z,11.48
2022-11-03T15:49:56.222Z,11.66
2022-11-03T15:52:49.137Z,11.31
2022-11-03T15:55:44.340Z,11.81
2022-11-03T15:58:34.575Z,11.71
2022-11-03T16:01:22.598Z,11.78
2022-11-03T16:04:09.642Z,11.77
2022-11-03T16:07:07.781Z,12.04
2022-11-03T16:09:57.050Z,11.35
2022-11-03T16:12:46.081Z,11.06
2022-11-03T16:15:39.291Z,10.92
2022-11-03T16:18:32.119Z,10.98
2022-11-03T16:21:32.134Z,10.79
2022-11-03T16:24:20.075Z,10.62
2022-11-03T16:27:06.820Z,10.97
2022-11-03T16:30:05.062Z,11.14
2022-11-03T16:32:58.058Z,11.03
2022-11-03T16:35:51.603Z,10.35
2022-11-03T16:38:44.523Z,10.97
2022-11-03T16:41:31.516Z,11.26
2022-11-03T16:44:20.605Z,11.14
2022-11-03T16:47:09.066Z,11.43
2022-11-03T16:50:03.316Z,10.93
2022-11-03T16:52:49.828Z,11.36
2022-11-03T16:55:49.004Z,11.38
2022-11-03T16:58:39.983Z,10.92
2022-11-03T17:01:27.162Z,11.43
2022-11-03T17:04:19.867Z,11.67
2022-11-03T17:07:16.089Z,11.78
2022-11-03T17:10:07.069Z,11.49
2022-11-03T17:12:57.286Z,11.28
2022-11-03T17:18:45.117Z,11.89
2022-11-03T17:21:32.945Z,11.61
2022-11-03T17:24:21.884Z,11.89
2022-11-03T17:27:12.556Z,11.52
2022-11-03T17:30:20.045Z,11.51
2022-11-03T17:36:12.100Z,11.84
2022-11-03T17:39:14.103Z,11.79
2022-11-03T17:42:16.129Z,12.11
2022-11-03T17:45:13.079Z,12.21
2022-11-03T17:51:05.259Z,11.88
2022-11-03T17:54:01.260Z,12.14
2022-11-03T17:56:51.040Z,12.12
2022-11-03T17:59:45.040Z,12.28
2022-11-03T18:02:37.097Z,12.36
2022-11-03T18:05:35.047Z,12.42
2022-11-03T18:08:33.100Z,12.32
2022-11-03T18:11:50.074Z,12.27
2022-11-03T18:14:47.086Z,12.26
2022-11-03T18:17:40.112Z,12.28
2022-11-03T18:20:33.942Z,12.31
2022-11-03T18:23:21.726Z,11.88
2022-11-03T18:26:17.252Z,12.26
2022-11-03T18:32:06.464Z,12.41
2022-11-03T18:34:56.117Z,12.03
2022-11-03T18:37:47.283Z,12.49
2022-11-03T18:40:39.449Z,12.43
2022-11-03T18:43:35.082Z,11.95
2022-11-03T18:46:27.508Z,12.24
2022-11-03T18:49:15.988Z,12.10
2022-11-03T18:52:04.691Z,12.39
2022-11-03T18:54:53.051Z,12.46
2022-11-03T18:57:45.379Z,12.31
2022-11-03T19:00:47.108Z,12.49
2022-11-03T19:03:36.498Z,12.58
2022-11-03T19:09:25.107Z,12.54
2022-11-03T19:15:37.794Z,12.78
2022-11-03T19:18:34.057Z,13.12
2022-11-03T19:21:28.221Z,13.02
2022-11-03T19:24:16.448Z,12.80
2022-11-03T19:27:18.051Z,12.33
2022-11-03T19:30:06.653Z,12.62
2022-11-03T19:33:07.575Z,12.75
2022-11-03T19:35:58.472Z,12.24
2022-11-03T19:38:55.071Z,12.89
2022-11-03T19:42:05.063Z,12.71
2022-11-03T19:44:55.988Z,12.72
2022-11-03T19:51:07.035Z,12.21
2022-11-03T19:54:06.057Z,12.44
2022-11-03T19:57:04.508Z,12.14
2022-11-03T19:59:53.089Z,12.83
2022-11-03T20:02:45.357Z,12.22
2022-11-03T20:08:39.759Z,12.51
2022-11-03T20:11:29.569Z,12.51
2022-11-03T20:14:17.124Z,12.70
2022-11-03T20:17:18.178Z,12.22
2022-11-03T20:20:08.266Z,12.35
2022-11-03T20:22:58.096Z,12.70
2022-11-03T20:25:47.169Z,12.79
2022-11-03T20:28:35.215Z,12.73
2022-11-03T20:31:22.229Z,12.66
2022-11-03T20:34:15.392Z,12.68
2022-11-03T20:37:04.772Z,12.46
2022-11-03T20:43:01.023Z,12.62
2022-11-03T20:45:49.871Z,12.21
2022-11-03T20:48:37.076Z,12.16
2022-11-03T20:51:26.298Z,12.33
2022-11-03T20:54:20.329Z,12.33
2022-11-03T20:57:11.321Z,12.57
2022-11-03T20:59:58.879Z,12.25
2022-11-03T21:02:48.915Z,12.49
2022-11-03T21:05:37.089Z,12.64
2022-11-03T21:08:26.120Z,12.56
2022-11-03T21:14:26.610Z,12.54
2022-11-03T21:20:25.472Z,12.63
2022-11-03T21:23:22.289Z,12.98
2022-11-03T21:26:21.079Z,12.85
2022-11-03T21:29:19.590Z,12.58
2022-11-03T21:32:16.223Z,12.53
2022-11-03T21:35:03.053Z,12.18
2022-11-03T21:37:50.328Z,12.68
2022-11-03T21:40:45.949Z,12.34
2022-11-03T21:43:52.770Z,12.87
2022-11-03T21:46:43.010Z,12.82
2022-11-03T21:49:44.077Z,12.92
2022-11-03T21:52:33.962Z,12.73
2022-11-03T21:55:26.186Z,12.32
2022-11-03T21:58:13.528Z,12.35
2022-11-03T22:01:05.098Z,12.98
2022-11-03T22:03:56.343Z,13.01
2022-11-03T22:06:43.001Z,13.23
2022-11-03T22:09:37.043Z,12.83
2022-11-03T22:12:25.114Z,12.87
2022-11-03T22:15:31.478Z,12.47
2022-11-03T22:18:17.833Z,12.69
2022-11-03T22:21:23.455Z,12.51
2022-11-03T22:24:28.870Z,12.47
2022-11-03T22:27:15.086Z,12.64
2022-11-03T22:30:23.962Z,12.44
2022-11-03T22:33:18.593Z,12.68
2022-11-03T22:36:24.295Z,12.62
2022-11-03T22:39:29.809Z,12.75
2022-11-03T22:42:34.931Z,12.91
2022-11-03T22:45:41.124Z,12.66
2022-11-03T22:48:28.284Z,12.86
2022-11-03T22:51:15.688Z,12.66
2022-11-03T22:54:11.413Z,12.43
2022-11-03T22:56:58.026Z,12.38
2022-11-03T22:59:45.172Z,12.46
2022-11-03T23:02:32.216Z,12.55
2022-11-03T23:05:23.018Z,12.78
2022-11-03T23:08:10.304Z,11.92
2022-11-03T23:10:56.734Z,12.51
2022-11-03T23:13:43.899Z,12.76
2022-11-03T23:16:31.431Z,12.46
2022-11-03T23:19:37.168Z,12.38
2022-11-03T23:22:23.054Z,12.65
2022-11-03T23:25:09.433Z,12.70
2022-11-03T23:27:55.765Z,12.45
2022-11-03T23:30:43.174Z,12.66
2022-11-03T23:33:30.567Z,12.00
2022-11-03T23:36:17.196Z,11.95
2022-11-03T23:39:05.034Z,12.14
2022-11-03T23:41:51.410Z,12.31
2022-11-03T23:44:56.202Z,12.21
2022-11-03T23:48:18.141Z,11.82
2022-11-03T23:51:03.914Z,12.15
2022-11-03T23:53:50.314Z,12.05
2022-11-03T23:56:59.431Z,12.08
2022-11-03T23:59:47.161Z,12.18
